sensor_id;sensor_type;location;lat;lon;timestamp;P1;durP1;ratioP1;P2;durP2;ratioP2
26702;SDS011;14316;51.074;3.704;2023-11-18T00:00:25;21.52;;;13.93;;
26702;SDS011;14316;51.074;3.704;2023-11-18T00:02:51;21.67;;;13.65;;
26702;SDS011;14316;51.074;3.704;2023-11-18T00:05:17;23.27;;;13.45;;
26702;SDS011;14316;51.074;3.704;2023-11-18T00:07:43;18.48;;;12.25;;
26702;SDS011;14316;51.074;3.704;2023-11-18T00:10:09;21.48;;;12.55;;
26702;SDS011;14316;51.074;3.704;2023-11-18T00:12:36;18.13;;;12.40;;
26702;SDS011;14316;51.074;3.704;2023-11-18T00:15:04;21.17;;;12.18;;
26702;SDS011;14316;51.074;3.704;2023-11-18T00:17:33;20.08;;;10.48;;
26702;SDS011;14316;51.074;3.704;2023-11-18T00:19:59;19.65;;;11.50;;
26702;SDS011;14316;51.074;3.704;2023-11-18T00:22:25;16.58;;;11.07;;
26702;SDS011;14316;51.074;3.704;2023-11-18T00:24:53;19.70;;;11.15;;
26702;SDS011;14316;51.074;3.704;2023-11-18T00:27:20;17.77;;;10.98;;
26702;SDS011;14316;51.074;3.704;2023-11-18T00:29:47;21.38;;;11.50;;
26702;SDS011;14316;51.074;3.704;2023-11-18T00:32:13;16.90;;;10.75;;
26702;SDS011;14316;51.074;3.704;2023-11-18T00:34:39;20.30;;;10.75;;
26702;SDS011;14316;51.074;3.704;2023-11-18T00:37:06;21.33;;;10.80;;
26702;SDS011;14316;51.074;3.704;2023-11-18T00:39:32;22.73;;;11.27;;
26702;SDS011;14316;51.074;3.704;2023-11-18T00:41:58;23.83;;;11.18;;
26702;SDS011;14316;51.074;3.704;2023-11-18T00:44:24;21.30;;;11.63;;
26702;SDS011;14316;51.074;3.704;2023-11-18T00:46:50;18.75;;;9.82;;
26702;SDS011;14316;51.074;3.704;2023-11-18T00:49:17;18.65;;;10.52;;
26702;SDS011;14316;51.074;3.704;2023-11-18T00:51:43;22.88;;;10.65;;
26702;SDS011;14316;51.074;3.704;2023-11-18T00:54:09;15.95;;;10.10;;
26702;SDS011;14316;51.074;3.704;2023-11-18T00:56:36;23.15;;;10.35;;
26702;SDS011;14316;51.074;3.704;2023-11-18T00:59:02;23.35;;;10.65;;
26702;SDS011;14316;51.074;3.704;2023-11-18T01:01:28;25.70;;;10.80;;
26702;SDS011;14316;51.074;3.704;2023-11-18T01:03:54;22.50;;;10.45;;
26702;SDS011;14316;51.074;3.704;2023-11-18T01:06:24;16.58;;;10.27;;
26702;SDS011;14316;51.074;3.704;2023-11-18T01:08:51;17.40;;;9.65;;
26702;SDS011;14316;51.074;3.704;2023-11-18T01:11:17;17.63;;;9.85;;
26702;SDS011;14316;51.074;3.704;2023-11-18T01:13:50;18.35;;;10.05;;
26702;SDS011;14316;51.074;3.704;2023-11-18T01:16:16;20.17;;;9.95;;
26702;SDS011;14316;51.074;3.704;2023-11-18T01:18:42;18.92;;;10.27;;
26702;SDS011;14316;51.074;3.704;2023-11-18T01:21:09;23.42;;;10.07;;
26702;SDS011;14316;51.074;3.704;2023-11-18T01:23:35;17.40;;;9.10;;
26702;SDS011;14316;51.074;3.704;2023-11-18T01:26:05;18.83;;;9.55;;
26702;SDS011;14316;51.074;3.704;2023-11-18T01:28:31;20.20;;;9.18;;
26702;SDS011;14316;51.074;3.704;2023-11-18T01:31:02;21.92;;;9.82;;
26702;SDS011;14316;51.074;3.704;2023-11-18T01:33:29;21.50;;;9.25;;
26702;SDS011;14316;51.074;3.704;2023-11-18T01:35:57;22.77;;;9.77;;
26702;SDS011;14316;51.074;3.704;2023-11-18T01:38:23;20.95;;;9.52;;
26702;SDS011;14316;51.074;3.704;2023-11-18T01:40:51;18.48;;;8.88;;
26702;SDS011;14316;51.074;3.704;2023-11-18T01:43:18;20.98;;;8.93;;
26702;SDS011;14316;51.074;3.704;2023-11-18T01:45:44;17.45;;;9.02;;
26702;SDS011;14316;51.074;3.704;2023-11-18T01:48:11;17.85;;;9.50;;
26702;SDS011;14316;51.074;3.704;2023-11-18T01:50:39;16.70;;;8.57;;
26702;SDS011;14316;51.074;3.704;2023-11-18T01:53:07;18.42;;;8.73;;
26702;SDS011;14316;51.074;3.704;2023-11-18T01:55:35;24.30;;;9.32;;
26702;SDS011;14316;51.074;3.704;2023-11-18T01:58:01;16.98;;;8.95;;
26702;SDS011;14316;51.074;3.704;2023-11-18T02:00:37;17.77;;;9.05;;
26702;SDS011;14316;51.074;3.704;2023-11-18T02:03:11;19.60;;;8.13;;
26702;SDS011;14316;51.074;3.704;2023-11-18T02:05:37;17.85;;;8.93;;
26702;SDS011;14316;51.074;3.704;2023-11-18T02:08:04;18.63;;;8.82;;
26702;SDS011;14316;51.074;3.704;2023-11-18T02:10:33;21.20;;;9.05;;
26702;SDS011;14316;51.074;3.704;2023-11-18T02:13:23;21.60;;;8.68;;
26702;SDS011;14316;51.074;3.704;2023-11-18T02:15:53;15.68;;;8.15;;
26702;SDS011;14316;51.074;3.704;2023-11-18T02:18:25;21.90;;;8.48;;
26702;SDS011;14316;51.074;3.704;2023-11-18T02:20:57;15.68;;;8.55;;
26702;SDS011;14316;51.074;3.704;2023-11-18T02:23:27;19.95;;;8.35;;
26702;SDS011;14316;51.074;3.704;2023-11-18T02:25:54;21.88;;;8.85;;
26702;SDS011;14316;51.074;3.704;2023-11-18T02:28:23;15.30;;;8.65;;
26702;SDS011;14316;51.074;3.704;2023-11-18T02:30:50;15.23;;;8.60;;
26702;SDS011;14316;51.074;3.704;2023-11-18T02:33:46;14.95;;;8.43;;
26702;SDS011;14316;51.074;3.704;2023-11-18T02:36:31;15.60;;;8.40;;
26702;SDS011;14316;51.074;3.704;2023-11-18T02:39:04;16.40;;;8.00;;
26702;SDS011;14316;51.074;3.704;2023-11-18T02:41:36;15.47;;;6.50;;
26702;SDS011;14316;51.074;3.704;2023-11-18T02:44:04;15.68;;;7.75;;
26702;SDS011;14316;51.074;3.704;2023-11-18T02:46:35;22.08;;;8.90;;
26702;SDS011;14316;51.074;3.704;2023-11-18T02:49:03;18.67;;;7.90;;
26702;SDS011;14316;51.074;3.704;2023-11-18T02:51:29;17.95;;;8.13;;
26702;SDS011;14316;51.074;3.704;2023-11-18T02:54:04;21.10;;;7.97;;
26702;SDS011;14316;51.074;3.704;2023-11-18T02:56:36;18.08;;;8.48;;
26702;SDS011;14316;51.074;3.704;2023-11-18T02:59:03;17.92;;;7.82;;
26702;SDS011;14316;51.074;3.704;2023-11-18T03:01:32;15.90;;;8.25;;
26702;SDS011;14316;51.074;3.704;2023-11-18T03:03:59;18.38;;;8.48;;
26702;SDS011;14316;51.074;3.704;2023-11-18T03:06:25;17.05;;;8.00;;
26702;SDS011;14316;51.074;3.704;2023-11-18T03:08:51;20.15;;;8.38;;
26702;SDS011;14316;51.074;3.704;2023-11-18T03:11:18;13.80;;;7.75;;
26702;SDS011;14316;51.074;3.704;2023-11-18T03:13:45;16.83;;;7.45;;
26702;SDS011;14316;51.074;3.704;2023-11-18T03:16:13;15.20;;;8.05;;
26702;SDS011;14316;51.074;3.704;2023-11-18T03:18:40;18.40;;;8.20;;
26702;SDS011;14316;51.074;3.704;2023-11-18T03:21:13;14.52;;;8.70;;
26702;SDS011;14316;51.074;3.704;2023-11-18T03:23:40;24.83;;;9.18;;
26702;SDS011;14316;51.074;3.704;2023-11-18T03:26:09;16.77;;;8.32;;
26702;SDS011;14316;51.074;3.704;2023-11-18T03:28:36;19.27;;;9.05;;
26702;SDS011;14316;51.074;3.704;2023-11-18T03:31:03;16.77;;;8.18;;
26702;SDS011;14316;51.074;3.704;2023-11-18T03:33:29;17.73;;;8.40;;
26702;SDS011;14316;51.074;3.704;2023-11-18T03:35:55;17.60;;;8.07;;
26702;SDS011;14316;51.074;3.704;2023-11-18T03:38:21;19.02;;;7.97;;
26702;SDS011;14316;51.074;3.704;2023-11-18T03:40:48;14.45;;;7.68;;
26702;SDS011;14316;51.074;3.704;2023-11-18T03:43:14;14.88;;;7.38;;
26702;SDS011;14316;51.074;3.704;2023-11-18T03:45:40;14.68;;;7.15;;
26702;SDS011;14316;51.074;3.704;2023-11-18T03:48:07;17.83;;;6.95;;
26702;SDS011;14316;51.074;3.704;2023-11-18T03:50:33;15.88;;;7.20;;
26702;SDS011;14316;51.074;3.704;2023-11-18T03:52:59;18.35;;;7.75;;
26702;SDS011;14316;51.074;3.704;2023-11-18T03:55:28;16.60;;;7.75;;
26702;SDS011;14316;51.074;3.704;2023-11-18T03:57:55;15.65;;;6.85;;
26702;SDS011;14316;51.074;3.704;2023-11-18T04:00:22;17.75;;;7.22;;
26702;SDS011;14316;51.074;3.704;2023-11-18T04:05:23;16.55;;;6.85;;
26702;SDS011;14316;51.074;3.704;2023-11-18T04:07:49;15.45;;;6.57;;
26702;SDS011;14316;51.074;3.704;2023-11-18T04:10:15;17.88;;;6.88;;
26702;SDS011;14316;51.074;3.704;2023-11-18T04:12:43;12.07;;;6.53;;
26702;SDS011;14316;51.074;3.704;2023-11-18T04:15:12;14.80;;;6.47;;
26702;SDS011;14316;51.074;3.704;2023-11-18T04:17:38;13.93;;;6.28;;
26702;SDS011;14316;51.074;3.704;2023-11-18T04:20:05;13.05;;;6.28;;
26702;SDS011;14316;51.074;3.704;2023-11-18T04:22:41;12.93;;;4.05;;
26702;SDS011;14316;51.074;3.704;2023-11-18T04:25:08;12.48;;;6.25;;
26702;SDS011;14316;51.074;3.704;2023-11-18T04:27:35;16.95;;;6.15;;
26702;SDS011;14316;51.074;3.704;2023-11-18T04:30:04;11.70;;;6.18;;
26702;SDS011;14316;51.074;3.704;2023-11-18T04:32:31;12.30;;;5.40;;
26702;SDS011;14316;51.074;3.704;2023-11-18T04:34:58;11.45;;;5.13;;
26702;SDS011;14316;51.074;3.704;2023-11-18T04:37:25;15.82;;;6.18;;
26702;SDS011;14316;51.074;3.704;2023-11-18T04:39:51;17.65;;;5.97;;
26702;SDS011;14316;51.074;3.704;2023-11-18T04:42:20;11.93;;;5.82;;
26702;SDS011;14316;51.074;3.704;2023-11-18T04:44:46;18.20;;;6.50;;
26702;SDS011;14316;51.074;3.704;2023-11-18T04:47:12;15.70;;;6.10;;
26702;SDS011;14316;51.074;3.704;2023-11-18T04:49:38;9.35;;;5.70;;
26702;SDS011;14316;51.074;3.704;2023-11-18T04:52:04;12.30;;;5.65;;
26702;SDS011;14316;51.074;3.704;2023-11-18T04:54:31;12.02;;;5.38;;
26702;SDS011;14316;51.074;3.704;2023-11-18T04:56:57;10.68;;;6.05;;
26702;SDS011;14316;51.074;3.704;2023-11-18T04:59:23;13.35;;;5.95;;
26702;SDS011;14316;51.074;3.704;2023-11-18T05:01:49;13.15;;;6.50;;
26702;SDS011;14316;51.074;3.704;2023-11-18T05:04:18;17.27;;;5.88;;
26702;SDS011;14316;51.074;3.704;2023-11-18T05:06:44;13.85;;;5.47;;
26702;SDS011;14316;51.074;3.704;2023-11-18T05:09:10;15.20;;;6.18;;
26702;SDS011;14316;51.074;3.704;2023-11-18T05:11:35;15.68;;;5.85;;
26702;SDS011;14316;51.074;3.704;2023-11-18T05:14:01;12.73;;;5.38;;
26702;SDS011;14316;51.074;3.704;2023-11-18T05:16:29;12.25;;;5.85;;
26702;SDS011;14316;51.074;3.704;2023-11-18T05:18:55;17.20;;;5.78;;
26702;SDS011;14316;51.074;3.704;2023-11-18T05:21:21;14.20;;;5.20;;
26702;SDS011;14316;51.074;3.704;2023-11-18T05:23:47;14.65;;;5.78;;
26702;SDS011;14316;51.074;3.704;2023-11-18T05:26:14;14.40;;;5.13;;
26702;SDS011;14316;51.074;3.704;2023-11-18T05:28:39;13.48;;;4.63;;
26702;SDS011;14316;51.074;3.704;2023-11-18T05:31:05;11.80;;;4.20;;
26702;SDS011;14316;51.074;3.704;2023-11-18T05:33:31;13.23;;;5.30;;
26702;SDS011;14316;51.074;3.704;2023-11-18T05:35:59;11.55;;;4.88;;
26702;SDS011;14316;51.074;3.704;2023-11-18T05:38:25;14.50;;;4.60;;
26702;SDS011;14316;51.074;3.704;2023-11-18T05:40:53;11.52;;;4.70;;
26702;SDS011;14316;51.074;3.704;2023-11-18T05:43:23;16.10;;;4.82;;
26702;SDS011;14316;51.074;3.704;2023-11-18T05:45:55;15.63;;;5.53;;
26702;SDS011;14316;51.074;3.704;2023-11-18T05:48:50;12.95;;;4.93;;
26702;SDS011;14316;51.074;3.704;2023-11-18T05:51:21;9.15;;;4.05;;
26702;SDS011;14316;51.074;3.704;2023-11-18T05:53:51;10.02;;;5.20;;
26702;SDS011;14316;51.074;3.704;2023-11-18T05:56:18;12.80;;;5.57;;
26702;SDS011;14316;51.074;3.704;2023-11-18T05:58:44;11.82;;;5.05;;
26702;SDS011;14316;51.074;3.704;2023-11-18T06:01:10;15.13;;;5.32;;
26702;SDS011;14316;51.074;3.704;2023-11-18T06:03:38;13.40;;;5.38;;
26702;SDS011;14316;51.074;3.704;2023-11-18T06:06:06;14.15;;;5.00;;
26702;SDS011;14316;51.074;3.704;2023-11-18T06:08:35;12.02;;;4.80;;
26702;SDS011;14316;51.074;3.704;2023-11-18T06:11:09;11.77;;;4.90;;
26702;SDS011;14316;51.074;3.704;2023-11-18T06:13:41;12.07;;;4.55;;
26702;SDS011;14316;51.074;3.704;2023-11-18T06:16:08;13.40;;;4.95;;
26702;SDS011;14316;51.074;3.704;2023-11-18T06:18:41;10.70;;;4.17;;
26702;SDS011;14316;51.074;3.704;2023-11-18T06:21:16;12.32;;;5.22;;
26702;SDS011;14316;51.074;3.704;2023-11-18T06:23:48;11.73;;;4.88;;
26702;SDS011;14316;51.074;3.704;2023-11-18T06:26:14;10.32;;;4.35;;
26702;SDS011;14316;51.074;3.704;2023-11-18T06:28:41;10.70;;;5.00;;
26702;SDS011;14316;51.074;3.704;2023-11-18T06:31:08;15.55;;;5.00;;
26702;SDS011;14316;51.074;3.704;2023-11-18T06:33:44;14.60;;;4.97;;
26702;SDS011;14316;51.074;3.704;2023-11-18T06:38:40;16.50;;;5.70;;
26702;SDS011;14316;51.074;3.704;2023-11-18T06:41:06;16.75;;;4.97;;
26702;SDS011;14316;51.074;3.704;2023-11-18T06:43:37;18.33;;;5.30;;
26702;SDS011;14316;51.074;3.704;2023-11-18T06:46:27;14.13;;;5.57;;
26702;SDS011;14316;51.074;3.704;2023-11-18T06:48:59;12.07;;;4.60;;
26702;SDS011;14316;51.074;3.704;2023-11-18T06:54:00;11.10;;;5.05;;
26702;SDS011;14316;51.074;3.704;2023-11-18T06:56:33;12.35;;;4.95;;
26702;SDS011;14316;51.074;3.704;2023-11-18T06:59:01;13.32;;;6.15;;
26702;SDS011;14316;51.074;3.704;2023-11-18T07:01:27;14.45;;;5.65;;
26702;SDS011;14316;51.074;3.704;2023-11-18T07:03:56;14.88;;;6.07;;
26702;SDS011;14316;51.074;3.704;2023-11-18T07:06:21;11.98;;;5.53;;
26702;SDS011;14316;51.074;3.704;2023-11-18T07:08:49;16.13;;;6.22;;
26702;SDS011;14316;51.074;3.704;2023-11-18T07:11:16;15.73;;;6.35;;
26702;SDS011;14316;51.074;3.704;2023-11-18T07:13:46;13.27;;;6.20;;
26702;SDS011;14316;51.074;3.704;2023-11-18T07:16:14;16.27;;;6.20;;
26702;SDS011;14316;51.074;3.704;2023-11-18T07:18:40;13.75;;;6.70;;
26702;SDS011;14316;51.074;3.704;2023-11-18T07:21:10;16.95;;;6.90;;
26702;SDS011;14316;51.074;3.704;2023-11-18T07:23:36;20.00;;;7.25;;
26702;SDS011;14316;51.074;3.704;2023-11-18T07:26:01;14.50;;;7.00;;
26702;SDS011;14316;51.074;3.704;2023-11-18T07:28:29;16.20;;;6.53;;
26702;SDS011;14316;51.074;3.704;2023-11-18T07:30:56;16.45;;;7.95;;
26702;SDS011;14316;51.074;3.704;2023-11-18T07:33:23;23.08;;;8.20;;
26702;SDS011;14316;51.074;3.704;2023-11-18T07:35:49;24.23;;;8.00;;
26702;SDS011;14316;51.074;3.704;2023-11-18T07:38:15;21.42;;;8.25;;
26702;SDS011;14316;51.074;3.704;2023-11-18T07:40:42;26.98;;;8.32;;
26702;SDS011;14316;51.074;3.704;2023-11-18T07:43:13;19.80;;;7.80;;
26702;SDS011;14316;51.074;3.704;2023-11-18T07:45:40;15.15;;;7.03;;
26702;SDS011;14316;51.074;3.704;2023-11-18T07:48:07;18.00;;;8.07;;
26702;SDS011;14316;51.074;3.704;2023-11-18T07:50:37;14.98;;;8.07;;
26702;SDS011;14316;51.074;3.704;2023-11-18T07:53:05;23.75;;;10.95;;
26702;SDS011;14316;51.074;3.704;2023-11-18T07:55:31;19.48;;;10.32;;
26702;SDS011;14316;51.074;3.704;2023-11-18T07:57:59;19.90;;;9.07;;
26702;SDS011;14316;51.074;3.704;2023-11-18T08:00:27;21.92;;;9.75;;
26702;SDS011;14316;51.074;3.704;2023-11-18T08:02:56;17.73;;;9.15;;
26702;SDS011;14316;51.074;3.704;2023-11-18T08:05:22;18.63;;;8.90;;
26702;SDS011;14316;51.074;3.704;2023-11-18T08:07:48;17.05;;;8.75;;
26702;SDS011;14316;51.074;3.704;2023-11-18T08:10:14;22.27;;;8.70;;
26702;SDS011;14316;51.074;3.704;2023-11-18T08:12:43;16.48;;;8.73;;
26702;SDS011;14316;51.074;3.704;2023-11-18T08:15:09;24.15;;;9.45;;
26702;SDS011;14316;51.074;3.704;2023-11-18T08:17:35;17.10;;;9.15;;
26702;SDS011;14316;51.074;3.704;2023-11-18T08:20:02;18.13;;;9.27;;
26702;SDS011;14316;51.074;3.704;2023-11-18T08:25:20;17.27;;;8.07;;
26702;SDS011;14316;51.074;3.704;2023-11-18T08:27:47;21.50;;;10.25;;
26702;SDS011;14316;51.074;3.704;2023-11-18T08:30:12;24.48;;;10.70;;
26702;SDS011;14316;51.074;3.704;2023-11-18T08:32:40;19.83;;;10.25;;
26702;SDS011;14316;51.074;3.704;2023-11-18T08:35:09;18.17;;;9.88;;
26702;SDS011;14316;51.074;3.704;2023-11-18T08:37:38;22.42;;;11.52;;
26702;SDS011;14316;51.074;3.704;2023-11-18T08:40:05;24.08;;;13.57;;
26702;SDS011;14316;51.074;3.704;2023-11-18T08:42:32;22.52;;;12.07;;
26702;SDS011;14316;51.074;3.704;2023-11-18T08:44:59;21.25;;;11.13;;
26702;SDS011;14316;51.074;3.704;2023-11-18T08:47:25;23.00;;;13.25;;
26702;SDS011;14316;51.074;3.704;2023-11-18T08:49:57;21.13;;;12.15;;
26702;SDS011;14316;51.074;3.704;2023-11-18T08:52:22;18.25;;;11.73;;
26702;SDS011;14316;51.074;3.704;2023-11-18T08:54:50;21.63;;;13.80;;
26702;SDS011;14316;51.074;3.704;2023-11-18T08:57:46;21.77;;;13.32;;
26702;SDS011;14316;51.074;3.704;2023-11-18T09:00:27;22.98;;;14.77;;
26702;SDS011;14316;51.074;3.704;2023-11-18T09:03:13;24.98;;;14.82;;
26702;SDS011;14316;51.074;3.704;2023-11-18T09:05:49;26.30;;;14.63;;
26702;SDS011;14316;51.074;3.704;2023-11-18T09:08:27;26.80;;;15.93;;
26702;SDS011;14316;51.074;3.704;2023-11-18T09:11:14;22.25;;;16.05;;
26702;SDS011;14316;51.074;3.704;2023-11-18T09:13:44;25.13;;;14.68;;
26702;SDS011;14316;51.074;3.704;2023-11-18T09:16:12;26.25;;;15.23;;
26702;SDS011;14316;51.074;3.704;2023-11-18T09:18:39;23.10;;;16.48;;
26702;SDS011;14316;51.074;3.704;2023-11-18T09:21:08;16.42;;;10.93;;
26702;SDS011;14316;51.074;3.704;2023-11-18T09:23:39;19.98;;;15.00;;
26702;SDS011;14316;51.074;3.704;2023-11-18T09:26:09;23.40;;;13.75;;
26702;SDS011;14316;51.074;3.704;2023-11-18T09:28:36;20.70;;;13.95;;
26702;SDS011;14316;51.074;3.704;2023-11-18T09:31:06;21.13;;;15.45;;
26702;SDS011;14316;51.074;3.704;2023-11-18T09:33:37;19.45;;;11.95;;
26702;SDS011;14316;51.074;3.704;2023-11-18T09:36:05;20.67;;;14.73;;
26702;SDS011;14316;51.074;3.704;2023-11-18T09:38:33;23.85;;;14.65;;
26702;SDS011;14316;51.074;3.704;2023-11-18T09:41:01;21.60;;;13.95;;
26702;SDS011;14316;51.074;3.704;2023-11-18T09:43:37;18.40;;;13.05;;
26702;SDS011;14316;51.074;3.704;2023-11-18T09:46:13;24.40;;;14.38;;
26702;SDS011;14316;51.074;3.704;2023-11-18T09:48:49;20.15;;;13.93;;
26702;SDS011;14316;51.074;3.704;2023-11-18T09:51:24;14.95;;;8.73;;
26702;SDS011;14316;51.074;3.704;2023-11-18T09:53:58;20.17;;;13.88;;
26702;SDS011;14316;51.074;3.704;2023-11-18T09:59:11;14.80;;;13.20;;
26702;SDS011;14316;51.074;3.704;2023-11-18T10:01:44;18.42;;;14.23;;
26702;SDS011;14316;51.074;3.704;2023-11-18T10:04:18;16.50;;;12.18;;
26702;SDS011;14316;51.074;3.704;2023-11-18T10:06:48;17.70;;;14.20;;
26702;SDS011;14316;51.074;3.704;2023-11-18T10:09:18;19.13;;;13.15;;
26702;SDS011;14316;51.074;3.704;2023-11-18T10:11:53;25.40;;;16.20;;
26702;SDS011;14316;51.074;3.704;2023-11-18T10:14:28;19.50;;;12.95;;
26702;SDS011;14316;51.074;3.704;2023-11-18T10:16:54;18.55;;;12.63;;
26702;SDS011;14316;51.074;3.704;2023-11-18T10:19:20;15.32;;;11.43;;
26702;SDS011;14316;51.074;3.704;2023-11-18T10:21:46;14.90;;;11.95;;
26702;SDS011;14316;51.074;3.704;2023-11-18T10:24:14;14.95;;;11.20;;
26702;SDS011;14316;51.074;3.704;2023-11-18T10:26:44;16.70;;;11.75;;
26702;SDS011;14316;51.074;3.704;2023-11-18T10:29:25;17.13;;;11.90;;
26702;SDS011;14316;51.074;3.704;2023-11-18T10:32:03;14.27;;;11.13;;
26702;SDS011;14316;51.074;3.704;2023-11-18T10:34:33;15.10;;;10.35;;
26702;SDS011;14316;51.074;3.704;2023-11-18T10:37:00;16.98;;;11.98;;
26702;SDS011;14316;51.074;3.704;2023-11-18T10:39:31;16.52;;;11.45;;
26702;SDS011;14316;51.074;3.704;2023-11-18T10:41:59;14.85;;;9.00;;
26702;SDS011;14316;51.074;3.704;2023-11-18T10:44:25;12.18;;;10.70;;
26702;SDS011;14316;51.074;3.704;2023-11-18T10:46:52;14.65;;;9.63;;
26702;SDS011;14316;51.074;3.704;2023-11-18T10:49:19;11.90;;;9.20;;
26702;SDS011;14316;51.074;3.704;2023-11-18T10:51:46;12.20;;;8.98;;
26702;SDS011;14316;51.074;3.704;2023-11-18T10:54:12;11.88;;;8.77;;
26702;SDS011;14316;51.074;3.704;2023-11-18T10:56:47;9.50;;;6.97;;
26702;SDS011;14316;51.074;3.704;2023-11-18T10:59:14;10.43;;;8.20;;
26702;SDS011;14316;51.074;3.704;2023-11-18T11:01:43;16.58;;;8.13;;
26702;SDS011;14316;51.074;3.704;2023-11-18T11:04:10;10.73;;;8.55;;
26702;SDS011;14316;51.074;3.704;2023-11-18T11:06:43;14.80;;;10.60;;
26702;SDS011;14316;51.074;3.704;2023-11-18T11:09:20;9.13;;;6.47;;
26702;SDS011;14316;51.074;3.704;2023-11-18T11:11:53;10.80;;;7.25;;
26702;SDS011;14316;51.074;3.704;2023-11-18T11:14:21;8.13;;;5.90;;
26702;SDS011;14316;51.074;3.704;2023-11-18T11:16:51;8.10;;;5.82;;
26702;SDS011;14316;51.074;3.704;2023-11-18T11:22:00;7.38;;;6.25;;
26702;SDS011;14316;51.074;3.704;2023-11-18T11:24:54;9.48;;;6.00;;
26702;SDS011;14316;51.074;3.704;2023-11-18T11:27:54;6.05;;;4.80;;
26702;SDS011;14316;51.074;3.704;2023-11-18T11:30:33;6.97;;;5.10;;
26702;SDS011;14316;51.074;3.704;2023-11-18T11:36:34;7.75;;;4.30;;
26702;SDS011;14316;51.074;3.704;2023-11-18T11:39:11;5.10;;;4.00;;
26702;SDS011;14316;51.074;3.704;2023-11-18T11:41:44;6.78;;;5.07;;
26702;SDS011;14316;51.074;3.704;2023-11-18T11:44:15;9.25;;;3.92;;
26702;SDS011;14316;51.074;3.704;2023-11-18T11:46:44;5.68;;;3.85;;
26702;SDS011;14316;51.074;3.704;2023-11-18T11:49:18;3.72;;;2.80;;
26702;SDS011;14316;51.074;3.704;2023-11-18T11:52:03;7.95;;;4.03;;
26702;SDS011;14316;51.074;3.704;2023-11-18T11:54:45;4.95;;;3.30;;
26702;SDS011;14316;51.074;3.704;2023-11-18T11:57:38;5.30;;;3.47;;
26702;SDS011;14316;51.074;3.704;2023-11-18T12:00:04;3.58;;;2.80;;
26702;SDS011;14316;51.074;3.704;2023-11-18T12:02:40;3.63;;;3.33;;
26702;SDS011;14316;51.074;3.704;2023-11-18T12:05:15;3.97;;;3.22;;
26702;SDS011;14316;51.074;3.704;2023-11-18T12:07:44;3.85;;;3.47;;
26702;SDS011;14316;51.074;3.704;2023-11-18T12:10:12;4.07;;;3.65;;
26702;SDS011;14316;51.074;3.704;2023-11-18T12:12:46;5.53;;;3.95;;
26702;SDS011;14316;51.074;3.704;2023-11-18T12:15:12;4.55;;;3.83;;
26702;SDS011;14316;51.074;3.704;2023-11-18T12:23:10;5.53;;;3.95;;
26702;SDS011;14316;51.074;3.704;2023-11-18T12:28:11;3.67;;;3.30;;
26702;SDS011;14316;51.074;3.704;2023-11-18T12:30:40;4.55;;;3.35;;
26702;SDS011;14316;51.074;3.704;2023-11-18T12:33:17;3.20;;;2.90;;
26702;SDS011;14316;51.074;3.704;2023-11-18T12:41:35;5.45;;;3.00;;
26702;SDS011;14316;51.074;3.704;2023-11-18T12:46:59;4.10;;;2.60;;
26702;SDS011;14316;51.074;3.704;2023-11-18T12:49:37;3.72;;;2.97;;
26702;SDS011;14316;51.074;3.704;2023-11-18T12:52:07;2.63;;;2.42;;
26702;SDS011;14316;51.074;3.704;2023-11-18T12:54:34;2.53;;;2.33;;
26702;SDS011;14316;51.074;3.704;2023-11-18T12:57:08;3.55;;;3.25;;
26702;SDS011;14316;51.074;3.704;2023-11-18T12:59:36;4.50;;;4.07;;
26702;SDS011;14316;51.074;3.704;2023-11-18T13:02:08;4.15;;;3.05;;
26702;SDS011;14316;51.074;3.704;2023-11-18T13:04:46;4.55;;;3.65;;
26702;SDS011;14316;51.074;3.704;2023-11-18T13:07:17;3.70;;;3.40;;
26702;SDS011;14316;51.074;3.704;2023-11-18T13:09:50;4.05;;;3.65;;
26702;SDS011;14316;51.074;3.704;2023-11-18T13:12:16;4.32;;;3.35;;
26702;SDS011;14316;51.074;3.704;2023-11-18T13:14:45;3.78;;;2.40;;
26702;SDS011;14316;51.074;3.704;2023-11-18T13:17:13;3.80;;;3.50;;
26702;SDS011;14316;51.074;3.704;2023-11-18T13:19:41;3.45;;;3.15;;
26702;SDS011;14316;51.074;3.704;2023-11-18T13:22:09;4.90;;;3.78;;
26702;SDS011;14316;51.074;3.704;2023-11-18T13:24:36;4.80;;;4.20;;
26702;SDS011;14316;51.074;3.704;2023-11-18T13:27:06;1.70;;;1.60;;
26702;SDS011;14316;51.074;3.704;2023-11-18T13:29:37;4.57;;;4.18;;
26702;SDS011;14316;51.074;3.704;2023-11-18T13:32:06;3.60;;;3.30;;
26702;SDS011;14316;51.074;3.704;2023-11-18T13:34:35;3.47;;;3.17;;
26702;SDS011;14316;51.074;3.704;2023-11-18T13:37:05;3.38;;;2.95;;
26702;SDS011;14316;51.074;3.704;2023-11-18T13:39:32;2.47;;;2.28;;
26702;SDS011;14316;51.074;3.704;2023-11-18T13:41:58;5.25;;;3.63;;
26702;SDS011;14316;51.074;3.704;2023-11-18T13:44:43;3.78;;;3.40;;
26702;SDS011;14316;51.074;3.704;2023-11-18T13:47:10;2.97;;;2.78;;
26702;SDS011;14316;51.074;3.704;2023-11-18T13:49:39;4.10;;;3.70;;
26702;SDS011;14316;51.074;3.704;2023-11-18T13:52:05;7.15;;;5.53;;
26702;SDS011;14316;51.074;3.704;2023-11-18T13:54:34;3.90;;;3.50;;
26702;SDS011;14316;51.074;3.704;2023-11-18T13:57:01;3.75;;;2.50;;
26702;SDS011;14316;51.074;3.704;2023-11-18T13:59:28;4.25;;;3.85;;
26702;SDS011;14316;51.074;3.704;2023-11-18T14:01:55;7.65;;;6.95;;
26702;SDS011;14316;51.074;3.704;2023-11-18T14:04:28;6.82;;;5.80;;
26702;SDS011;14316;51.074;3.704;2023-11-18T14:06:58;7.50;;;6.72;;
26702;SDS011;14316;51.074;3.704;2023-11-18T14:09:24;7.80;;;6.88;;
26702;SDS011;14316;51.074;3.704;2023-11-18T14:11:52;6.75;;;3.95;;
26702;SDS011;14316;51.074;3.704;2023-11-18T14:14:22;7.25;;;4.47;;
26702;SDS011;14316;51.074;3.704;2023-11-18T14:16:48;5.72;;;5.28;;
26702;SDS011;14316;51.074;3.704;2023-11-18T14:19:14;8.13;;;7.38;;
26702;SDS011;14316;51.074;3.704;2023-11-18T14:21:40;5.28;;;4.78;;
26702;SDS011;14316;51.074;3.704;2023-11-18T14:24:07;3.85;;;3.20;;
26702;SDS011;14316;51.074;3.704;2023-11-18T14:26:35;3.35;;;2.83;;
26702;SDS011;14316;51.074;3.704;2023-11-18T14:29:02;5.18;;;4.68;;
26702;SDS011;14316;51.074;3.704;2023-11-18T14:31:27;6.75;;;5.72;;
26702;SDS011;14316;51.074;3.704;2023-11-18T14:33:56;8.88;;;7.55;;
26702;SDS011;14316;51.074;3.704;2023-11-18T14:36:24;8.05;;;7.22;;
26702;SDS011;14316;51.074;3.704;2023-11-18T14:38:50;7.63;;;6.78;;
26702;SDS011;14316;51.074;3.704;2023-11-18T14:41:16;6.03;;;5.15;;
26702;SDS011;14316;51.074;3.704;2023-11-18T14:43:42;6.35;;;5.75;;
26702;SDS011;14316;51.074;3.704;2023-11-18T14:46:08;5.43;;;4.72;;
26702;SDS011;14316;51.074;3.704;2023-11-18T14:48:34;7.75;;;6.55;;
26702;SDS011;14316;51.074;3.704;2023-11-18T14:50:59;6.45;;;5.65;;
26702;SDS011;14316;51.074;3.704;2023-11-18T14:53:25;4.22;;;3.80;;
26702;SDS011;14316;51.074;3.704;2023-11-18T14:55:51;6.65;;;6.05;;
26702;SDS011;14316;51.074;3.704;2023-11-18T14:58:17;9.38;;;8.57;;
26702;SDS011;14316;51.074;3.704;2023-11-18T15:00:42;7.47;;;6.82;;
26702;SDS011;14316;51.074;3.704;2023-11-18T15:03:12;8.02;;;7.22;;
26702;SDS011;14316;51.074;3.704;2023-11-18T15:05:37;10.20;;;9.27;;
26702;SDS011;14316;51.074;3.704;2023-11-18T15:08:03;6.80;;;6.10;;
26702;SDS011;14316;51.074;3.704;2023-11-18T15:10:34;6.25;;;5.45;;
26702;SDS011;14316;51.074;3.704;2023-11-18T15:13:02;7.43;;;6.72;;
26702;SDS011;14316;51.074;3.704;2023-11-18T15:15:28;6.78;;;6.18;;
26702;SDS011;14316;51.074;3.704;2023-11-18T15:17:59;6.68;;;6.00;;
26702;SDS011;14316;51.074;3.704;2023-11-18T15:20:33;7.47;;;6.82;;
26702;SDS011;14316;51.074;3.704;2023-11-18T15:23:00;6.88;;;6.22;;